KBJI

Bemidji Regional Airport

Bemidji, Minnesota, USA
METAR KBJI 170215Z AUTO 21003KT 10SM BKN006 OVC010 M05/M05 A3002 RMK AO2 T10461055
Observed Flight Rules
Dec-17 @ 02:15 UTC (16 minutes ago) Instrument Flight Rules
Wind Visibility Clouds
210° at 3 knots 10 miles
  • Broken at 600' AGL
  • Overcast at 1,000' AGL
Temperatures Readings
Current -5°C / 23°F
Dewpoint -6°C / 21°F
Humidity 93%
Altimeter 30.02" Hg
Pressure 1017 hPa
Elevation 420
METAR KBJI 170215Z AUTO 21003KT 10SM BKN006 OVC010 M05/M05 A3002 RMK AO2 T10461055
Observed Flight Rules
Dec-17 @ 02:15 UTC
(16 minutes ago)
IFR
Wind Visibility
210° at 3 knots 10 miles
Clouds
  • Broken at 600' AGL
  • Overcast at 1,000' AGL
Temperature Dewpoint
-5°C / 23°F -6°C / 21°F
Humidity Altimeter Pressure
93% 30.02" Hg 1017 hPa